Terminal Aerodrome Forecast
Issued by NWS

Current Version | Previous Version | Graphics & Text | Print | Product List | Glossary On
Versions: 1 2 3 4 5 6 7 8 9 10 11 12 13 14 15 16 17 18 19
000
FTUS41 KILN 300242 AAA
TAFLCK
TAF AMD
KLCK 300242Z 3003/3024 23003KT 3SM BR SCT040
     FM300600 34006KT P6SM SCT020
     FM301400 31007KT P6SM FEW035
     FM302200 VRB04KT P6SM SKC=

USA.gov is the U.S. government's official web portal to all federal, state and local government web resources and services.